ADDS METAR Data

Data at: 0715 UTC 16 Jan 2018

METAR for:KATL (Atlanta/Hartsfield-J, GA, US)
Text:KATL 160652Z 00000KT 10SM FEW250 02/M04 A3039 RMK AO2 SLP297 T00171044 $
Temperature: 1.7°C ( 35°F)
Dewpoint: -4.4°C ( 24°F) [RH = 64%]
Pressure (altimeter):30.39 inches Hg (1029.2 mb) [Sea level pressure: 1029.7 mb]
Winds:calm
Visibility:10 or more sm (16+ km)
Ceiling:at least 12,000 feet AGL
Clouds: few clouds at 25000 feet AGL
QC Flag:SOME DATA ABOVE MAY BE INACCURATE!!!"$" is an indication the sensor requires maintenance.